Time;durP1;ratioP1;P1;durP2;ratioP2;P2;SDS_P1;SDS_P2;PMS_P1;PMS_P2;Temp;Humidity;BMP_temperature;BMP_pressure;BME280_temperature;BME280_humidity;BME280_pressure;Samples;Min_cycle;Max_cycle;Signal;HPM_P1;HPM_P2
2022/06/14 00:01:30;;;;;;;0.28;0.20;;;9.80;99.90;;;;;;5035295;28;20775;-75
2022/06/14 00:03:59;;;;;;;0.35;0.30;;;9.80;99.90;;;;;;5036824;28;20034;-76
2022/06/14 00:06:27;;;;;;;0.40;0.20;;;9.80;99.90;;;;;;5037360;28;20064;-75
2022/06/14 00:08:53;;;;;;;0.50;0.30;;;9.70;99.90;;;;;;5035888;28;20036;-75
2022/06/14 00:11:23;;;;;;;0.68;0.30;;;9.70;99.90;;;;;;5032826;28;20037;-76
2022/06/14 00:13:50;;;;;;;0.28;0.20;;;9.70;99.90;;;;;;5037514;28;20025;-76
2022/06/14 00:16:17;;;;;;;0.68;0.30;;;9.70;99.90;;;;;;5036128;28;20045;-76
2022/06/14 00:18:42;;;;;;;0.60;0.30;;;9.70;99.90;;;;;;5033108;28;20030;-75
2022/06/14 00:21:08;;;;;;;0.82;0.30;;;9.70;99.90;;;;;;5033425;28;20076;-76
2022/06/14 00:23:35;;;;;;;0.63;0.50;;;9.70;99.90;;;;;;5036028;28;20634;-76
2022/06/14 00:26:02;;;;;;;0.35;0.20;;;9.70;99.90;;;;;;5032259;28;20515;-76
2022/06/14 00:28:30;;;;;;;0.28;0.20;;;9.60;99.90;;;;;;5038504;28;20113;-76
2022/06/14 00:31:02;;;;;;;0.43;0.28;;;9.60;99.90;;;;;;5037529;28;20049;-75
2022/06/14 00:33:28;;;;;;;0.68;0.30;;;9.60;99.90;;;;;;5041555;28;20051;-76
2022/06/14 00:36:06;;;;;;;0.85;0.30;;;9.60;99.90;;;;;;5041156;28;20037;-76
2022/06/14 00:38:34;;;;;;;0.35;0.25;;;9.60;99.90;;;;;;5037419;28;20036;-76
2022/06/14 00:41:00;;;;;;;0.80;0.35;;;9.60;99.90;;;;;;5035499;28;20137;-76
2022/06/14 00:43:31;;;;;;;0.20;0.20;;;9.50;99.90;;;;;;5038824;28;20265;-76
2022/06/14 00:46:20;;;;;;;1.25;0.60;;;9.50;99.90;;;;;;5038711;28;20029;-76
2022/06/14 00:48:53;;;;;;;0.65;0.30;;;9.40;99.90;;;;;;5035327;28;20106;-76
2022/06/14 00:51:32;;;;;;;0.77;0.30;;;9.40;99.90;;;;;;5038952;28;20021;-76
2022/06/14 00:54:05;;;;;;;0.28;0.20;;;9.40;99.90;;;;;;5034788;28;20394;-75
2022/06/14 00:56:38;;;;;;;0.60;0.30;;;9.40;99.90;;;;;;5041404;28;20048;-77
2022/06/14 00:59:20;;;;;;;0.47;0.20;;;9.40;99.90;;;;;;5033199;28;20029;-75
2022/06/14 01:01:48;;;;;;;0.45;0.25;;;9.30;99.90;;;;;;5040439;28;20101;-76
2022/06/14 01:04:22;;;;;;;0.40;0.22;;;9.30;99.90;;;;;;5032770;28;20021;-75
2022/06/14 01:07:01;;;;;;;0.70;0.30;;;9.30;99.90;;;;;;5036760;28;20619;-75
2022/06/14 01:09:43;;;;;;;0.70;0.30;;;9.30;99.90;;;;;;5039285;28;20026;-75
2022/06/14 01:12:12;;;;;;;0.57;0.28;;;9.20;99.90;;;;;;5035941;28;20053;-75
2022/06/14 01:14:44;;;;;;;0.88;0.30;;;9.20;99.90;;;;;;5044851;28;20060;-75
2022/06/14 01:17:10;;;;;;;;;;;9.20;99.90;;;;;;5040395;28;20731;-75
2022/06/14 01:19:39;;;;;;;1.23;0.35;;;9.20;99.90;;;;;;5036347;28;19978;-75
2022/06/14 01:22:05;;;;;;;0.60;0.30;;;9.20;99.90;;;;;;5041430;28;20045;-75
2022/06/14 01:24:32;;;;;;;0.77;0.30;;;9.20;99.90;;;;;;5038203;28;20051;-75
2022/06/14 01:26:59;;;;;;;0.85;0.35;;;9.10;99.90;;;;;;5032038;28;20207;-75
2022/06/14 01:29:26;;;;;;;0.57;0.30;;;9.10;99.90;;;;;;5033768;28;20081;-76
2022/06/14 01:31:59;;;;;;;0.52;0.30;;;9.10;99.90;;;;;;5031900;28;20512;-76
2022/06/14 01:34:27;;;;;;;0.60;0.30;;;9.00;99.90;;;;;;5042383;28;20049;-76
2022/06/14 01:36:53;;;;;;;0.80;0.30;;;9.00;99.90;;;;;;5037262;28;20021;-76
2022/06/14 01:39:20;;;;;;;1.20;0.38;;;9.00;99.90;;;;;;5035701;28;20025;-75
2022/06/14 01:42:07;;;;;;;1.40;0.60;;;9.00;99.90;;;;;;5040623;28;20040;-75
2022/06/14 01:45:04;;;;;;;0.65;0.30;;;9.00;99.90;;;;;;5039225;28;20247;-75
2022/06/14 01:47:43;;;;;;;1.23;0.40;;;8.90;99.90;;;;;;5029149;28;20032;-75
2022/06/14 01:53:41;;;;;;;0.80;0.30;;;8.90;99.90;;;;;;5040098;28;20044;-75
2022/06/14 01:56:11;;;;;;;0.57;0.28;;;9.00;99.90;;;;;;5031627;28;20026;-75
2022/06/14 01:58:49;;;;;;;0.95;0.30;;;8.90;99.90;;;;;;5029505;28;20038;-75
2022/06/14 02:01:38;;;;;;;1.23;0.40;;;8.90;99.90;;;;;;5030587;28;20037;-75
2022/06/14 02:07:08;;;;;;;0.75;0.35;;;8.90;99.90;;;;;;5031656;28;20087;-69
2022/06/14 02:10:12;;;;;;;0.60;0.30;;;8.90;99.90;;;;;;5032334;28;20025;-68
2022/06/14 02:13:00;;;;;;;0.57;0.30;;;8.90;99.90;;;;;;5031021;28;20048;-69
2022/06/14 02:15:32;;;;;;;0.40;0.32;;;8.90;99.90;;;;;;5037232;28;20052;-68
2022/06/14 02:18:10;;;;;;;0.60;0.28;;;8.90;99.90;;;;;;5033921;28;20049;-68
2022/06/14 02:21:08;;;;;;;0.93;0.30;;;8.90;99.90;;;;;;5031113;28;20045;-68
2022/06/14 02:23:39;;;;;;;0.20;0.20;;;8.90;99.90;;;;;;5031547;28;20401;-69
2022/06/14 02:26:11;;;;;;;0.75;0.30;;;8.90;99.90;;;;;;5035587;28;20021;-69
2022/06/14 02:29:05;;;;;;;0.30;0.20;;;8.90;99.90;;;;;;5034584;28;20874;-68
2022/06/14 02:31:41;;;;;;;0.57;0.25;;;8.90;99.90;;;;;;5031377;28;20053;-69
2022/06/14 02:34:12;;;;;;;0.93;0.35;;;9.00;99.90;;;;;;5031765;28;20025;-68
2022/06/14 02:37:04;;;;;;;1.40;0.40;;;8.90;99.90;;;;;;5032702;28;20029;-69
2022/06/14 02:39:35;;;;;;;0.93;0.30;;;9.00;99.90;;;;;;5031711;28;20033;-69
2022/06/14 02:42:01;;;;;;;0.85;0.35;;;8.90;99.90;;;;;;5035186;28;20049;-69
2022/06/14 02:44:52;;;;;;;0.95;0.32;;;8.90;99.90;;;;;;5037242;28;20033;-69
2022/06/14 02:47:24;;;;;;;0.22;0.20;;;8.90;99.90;;;;;;5035991;28;20099;-68
2022/06/14 02:50:06;;;;;;;1.38;0.40;;;8.90;99.90;;;;;;5034792;28;20527;-68
2022/06/14 02:52:41;;;;;;;0.38;0.20;;;8.90;99.90;;;;;;5042209;28;20048;-68
2022/06/14 02:55:36;;;;;;;1.02;0.40;;;8.90;99.90;;;;;;5038638;28;20030;-68
2022/06/14 02:58:07;;;;;;;0.75;0.30;;;8.90;99.90;;;;;;5035748;28;20314;-69
2022/06/14 03:01:06;;;;;;;0.95;0.40;;;8.90;99.90;;;;;;5042963;28;20045;-69
2022/06/14 03:03:44;;;;;;;0.35;0.30;;;8.90;99.90;;;;;;5047953;28;20052;-69
2022/06/14 03:06:12;;;;;;;0.95;0.32;;;8.90;99.90;;;;;;5041788;28;20036;-69
2022/06/14 03:09:11;;;;;;;0.80;0.30;;;8.90;99.90;;;;;;5041545;28;20018;-69
2022/06/14 03:12:05;;;;;;;0.73;0.30;;;8.90;99.90;;;;;;5038560;28;20044;-69
2022/06/14 03:14:59;;;;;;;0.50;0.25;;;9.00;99.90;;;;;;5037561;28;20377;-69
2022/06/14 03:17:40;;;;;;;0.60;0.30;;;9.00;99.90;;;;;;5043038;28;20032;-69
2022/06/14 03:20:29;;;;;;;1.20;0.40;;;8.90;99.90;;;;;;5042075;28;20045;-69
2022/06/14 03:23:02;;;;;;;0.63;0.30;;;8.90;99.90;;;;;;5042176;28;20029;-69
2022/06/14 03:25:45;;;;;;;1.25;0.55;;;8.90;99.90;;;;;;5041401;28;20108;-70
2022/06/14 03:28:13;;;;;;;0.95;0.30;;;9.00;99.90;;;;;;5035807;28;20097;-69
2022/06/14 03:31:08;;;;;;;1.10;0.38;;;9.00;99.90;;;;;;5042004;28;20018;-69
2022/06/14 03:34:08;;;;;;;0.80;0.30;;;9.00;99.90;;;;;;5037960;28;20033;-69
2022/06/14 03:36:34;;;;;;;0.73;0.38;;;9.00;99.90;;;;;;5031712;28;20045;-69
2022/06/14 03:39:12;;;;;;;0.28;0.20;;;9.00;99.90;;;;;;5040960;28;20033;-69
2022/06/14 03:41:43;;;;;;;0.57;0.30;;;9.00;99.90;;;;;;5040066;28;20033;-69
2022/06/14 03:44:10;;;;;;;1.17;0.55;;;9.10;99.90;;;;;;5038929;28;20017;-69
2022/06/14 03:46:44;;;;;;;1.17;0.30;;;9.10;99.90;;;;;;5044596;28;20034;-69
2022/06/14 03:49:15;;;;;;;0.88;0.30;;;9.10;99.90;;;;;;5038525;28;20102;-69
2022/06/14 03:51:47;;;;;;;0.20;0.20;;;9.10;99.90;;;;;;5044640;28;20378;-67
2022/06/14 03:54:29;;;;;;;;;;;9.20;99.90;;;;;;5042446;28;20291;-68
2022/06/14 03:57:19;;;;;;;0.50;0.28;;;9.20;99.90;;;;;;5045735;28;19960;-69
2022/06/14 04:00:06;;;;;;;0.47;0.30;;;9.30;99.90;;;;;;5043939;28;20060;-69
2022/06/14 04:02:53;;;;;;;0.68;0.30;;;9.30;99.90;;;;;;5042073;28;20060;-68
2022/06/14 04:05:35;;;;;;;0.28;0.20;;;9.40;99.90;;;;;;5042466;28;20037;-69
2022/06/14 04:08:18;;;;;;;0.82;0.30;;;9.40;99.90;;;;;;5040739;28;20033;-70
2022/06/14 04:10:48;;;;;;;1.25;0.50;;;9.40;99.90;;;;;;5044772;28;20033;-69
2022/06/14 04:13:43;;;;;;;0.28;0.20;;;9.50;99.90;;;;;;5041418;28;20033;-69
2022/06/14 04:16:26;;;;;;;1.15;0.40;;;9.60;99.90;;;;;;5045644;28;20024;-68
2022/06/14 04:19:03;;;;;;;0.80;0.30;;;9.60;99.90;;;;;;5046719;28;20025;-69
2022/06/14 04:21:44;;;;;;;0.82;0.30;;;9.60;99.90;;;;;;5046828;28;20132;-69
2022/06/14 04:24:31;;;;;;;0.80;0.30;;;9.60;99.90;;;;;;5038367;28;20100;-68
2022/06/14 04:27:16;;;;;;;1.15;0.35;;;9.60;99.90;;;;;;5050306;28;20026;-69
2022/06/14 04:29:52;;;;;;;0.47;0.22;;;9.70;99.90;;;;;;5048308;28;20048;-69
2022/06/14 04:32:41;;;;;;;0.90;0.30;;;9.70;99.90;;;;;;5051194;28;20105;-69
2022/06/14 04:35:30;;;;;;;0.47;0.30;;;9.70;99.90;;;;;;5042715;28;20024;-68
2022/06/14 04:38:09;;;;;;;0.57;0.30;;;9.80;99.90;;;;;;5047755;28;20502;-69
2022/06/14 04:41:05;;;;;;;0.60;0.30;;;9.90;99.90;;;;;;5044037;28;20036;-69
2022/06/14 04:43:44;;;;;;;0.98;0.40;;;9.90;99.90;;;;;;5048525;28;20053;-69
2022/06/14 04:46:23;;;;;;;0.75;0.30;;;10.00;99.90;;;;;;5048729;28;20055;-69
2022/06/14 04:49:07;;;;;;;1.10;0.35;;;10.10;99.90;;;;;;5047632;28;20047;-69
2022/06/14 04:51:42;;;;;;;0.52;0.25;;;10.10;99.90;;;;;;5045398;28;20431;-69
2022/06/14 04:54:34;;;;;;;1.20;0.38;;;10.20;99.90;;;;;;5041801;28;20036;-69
2022/06/14 04:57:15;;;;;;;0.45;0.22;;;10.30;99.90;;;;;;5052831;28;20116;-69
2022/06/14 05:00:05;;;;;;;0.35;0.30;;;10.40;99.90;;;;;;5052559;28;20459;-69
2022/06/14 05:02:37;;;;;;;0.43;0.25;;;10.60;99.90;;;;;;5041651;28;20037;-70
2022/06/14 05:05:23;;;;;;;1.23;0.52;;;10.70;99.90;;;;;;5045171;28;20059;-69
2022/06/14 05:08:12;;;;;;;0.65;0.30;;;10.80;99.90;;;;;;5045915;28;20378;-68
2022/06/14 05:10:47;;;;;;;0.43;0.30;;;10.90;99.90;;;;;;5047967;28;20021;-69
2022/06/14 05:13:17;;;;;;;1.13;0.60;;;11.10;99.90;;;;;;5042041;28;20021;-69
2022/06/14 05:16:13;;;;;;;0.47;0.28;;;11.20;99.90;;;;;;5045221;28;20401;-69
2022/06/14 05:18:50;;;;;;;0.40;0.20;;;11.40;99.90;;;;;;5055988;28;20048;-69
2022/06/14 05:21:23;;;;;;;0.32;0.20;;;11.50;99.90;;;;;;5045510;28;20026;-69
2022/06/14 05:23:52;;;;;;;0.90;0.30;;;11.70;99.90;;;;;;5044021;28;20027;-69
2022/06/14 05:26:39;;;;;;;0.28;0.20;;;11.80;99.90;;;;;;5052566;28;20116;-69
2022/06/14 05:29:13;;;;;;;1.02;0.40;;;12.00;99.90;;;;;;5059623;28;20099;-69
2022/06/14 05:31:57;;;;;;;0.50;0.25;;;12.10;99.90;;;;;;5040541;28;20057;-69
2022/06/14 05:34:25;;;;;;;0.30;0.20;;;12.20;99.90;;;;;;5043637;28;20079;-69
2022/06/14 05:37:23;;;;;;;0.30;0.20;;;12.50;99.90;;;;;;5040807;28;20033;-69
2022/06/14 05:39:59;;;;;;;0.75;0.30;;;12.60;99.90;;;;;;5041860;28;20121;-69
2022/06/14 05:42:34;;;;;;;0.40;0.20;;;12.80;99.90;;;;;;5046978;28;20036;-70
2022/06/14 05:45:02;;;;;;;0.68;0.30;;;13.10;99.90;;;;;;5040135;28;20045;-69
2022/06/14 05:47:36;;;;;;;0.28;0.20;;;13.30;99.90;;;;;;5044950;28;20146;-69
2022/06/14 05:50:09;;;;;;;0.30;0.20;;;13.40;99.90;;;;;;5045778;28;20116;-69
2022/06/14 05:52:51;;;;;;;0.60;0.20;;;13.70;99.90;;;;;;5046767;28;20029;-69
2022/06/14 05:55:35;;;;;;;0.32;0.20;;;14.00;99.90;;;;;;5052387;28;20095;-69
2022/06/14 05:58:17;;;;;;;0.57;0.20;;;14.20;99.90;;;;;;5039023;28;20462;-70
2022/06/14 06:00:50;;;;;;;0.20;0.10;;;14.30;99.90;;;;;;5050664;28;20075;-69
2022/06/14 06:03:35;;;;;;;1.23;0.50;;;14.40;99.90;;;;;;5050676;28;20060;-70
2022/06/14 06:06:32;;;;;;;0.55;0.20;;;14.70;99.90;;;;;;5048658;28;20093;-69
2022/06/14 06:09:05;;;;;;;0.35;0.13;;;14.70;99.90;;;;;;5041999;28;20064;-68
2022/06/14 06:11:40;;;;;;;0.22;0.10;;;15.10;99.90;;;;;;5043746;28;20060;-68
2022/06/14 06:14:20;;;;;;;1.23;0.55;;;15.40;99.90;;;;;;5044044;28;20083;-69
2022/06/14 06:19:44;;;;;;;0.55;0.20;;;15.90;99.90;;;;;;5039138;28;20057;-68
2022/06/14 06:22:22;;;;;;;0.93;0.30;;;16.20;99.90;;;;;;5041005;28;20040;-68
2022/06/14 06:25:00;;;;;;;0.63;0.20;;;16.50;99.90;;;;;;5050572;28;20025;-68
2022/06/14 06:27:38;;;;;;;0.10;0.10;;;17.00;99.90;;;;;;5045525;28;20418;-68
2022/06/14 06:30:12;;;;;;;0.68;0.30;;;17.10;99.90;;;;;;5049528;28;20102;-69
2022/06/14 06:32:39;;;;;;;0.17;0.10;;;17.20;99.90;;;;;;5048727;28;20041;-69
2022/06/14 06:35:05;;;;;;;2.13;0.55;;;17.40;99.90;;;;;;5048305;28;20036;-68
2022/06/14 06:37:38;;;;;;;0.30;0.20;;;17.60;99.90;;;;;;5043094;28;20449;-68
2022/06/14 06:40:13;;;;;;;0.30;0.10;;;18.00;99.90;;;;;;5045654;28;20040;-69
2022/06/14 06:42:46;;;;;;;0.65;0.20;;;18.30;99.90;;;;;;5046061;28;20029;-69
2022/06/14 06:45:18;;;;;;;0.43;0.20;;;18.30;99.90;;;;;;5047438;28;20048;-69
2022/06/14 06:48:08;;;;;;;0.15;0.10;;;18.40;99.90;;;;;;5044756;28;20040;-69
2022/06/14 06:50:48;;;;;;;1.65;0.40;;;18.30;99.90;;;;;;5051848;28;20052;-69
2022/06/14 06:53:18;;;;;;;0.10;0.10;;;18.30;99.90;;;;;;5044028;28;20033;-69
2022/06/14 06:55:53;;;;;;;0.17;0.10;;;18.80;99.90;;;;;;5048032;28;20539;-68
2022/06/14 06:58:29;;;;;;;0.28;0.20;;;18.70;99.90;;;;;;5046333;28;20052;-69
2022/06/14 07:01:02;;;;;;;0.20;0.10;;;19.00;99.90;;;;;;5050784;28;20060;-69
2022/06/14 07:03:47;;;;;;;0.65;0.25;;;19.30;99.90;;;;;;5043528;28;20085;-69
2022/06/14 07:06:25;;;;;;;2.05;0.75;;;19.40;99.90;;;;;;5046009;28;20024;-69
2022/06/14 07:09:05;;;;;;;0.17;0.17;;;19.90;99.90;;;;;;5043706;28;20045;-70
2022/06/14 07:11:38;;;;;;;0.32;0.20;;;19.90;99.90;;;;;;5042423;28;20017;-69
2022/06/14 07:14:23;;;;;;;0.10;0.10;;;20.30;99.90;;;;;;5044435;28;20555;-70
2022/06/14 07:17:04;;;;;;;0.15;0.10;;;20.10;99.90;;;;;;5047587;28;21252;-69
2022/06/14 07:19:46;;;;;;;0.10;0.10;;;20.30;99.90;;;;;;5042016;28;20033;-69
2022/06/14 07:22:20;;;;;;;0.20;0.10;;;20.30;99.90;;;;;;5042997;28;20051;-69
2022/06/14 07:24:54;;;;;;;0.00;0.00;;;20.20;99.90;;;;;;5044542;28;20029;-69
2022/06/14 07:27:24;;;;;;;0.13;0.10;;;19.60;99.90;;;;;;5046278;28;20212;-70
2022/06/14 07:30:14;;;;;;;0.10;0.10;;;20.10;99.90;;;;;;5045815;28;20040;-69
2022/06/14 07:33:00;;;;;;;0.00;0.00;;;20.50;99.90;;;;;;5044442;28;20041;-68
2022/06/14 07:35:40;;;;;;;0.00;0.00;;;20.50;99.90;;;;;;5046851;28;20036;-69
2022/06/14 07:38:27;;;;;;;0.10;0.10;;;20.30;99.90;;;;;;5050404;28;20066;-69
2022/06/14 07:41:00;;;;;;;0.08;0.00;;;19.60;97.50;;;;;;5049325;28;20102;-69
2022/06/14 07:43:33;;;;;;;0.00;0.00;;;19.20;99.90;;;;;;5053589;28;20104;-69
2022/06/14 07:46:07;;;;;;;0.05;0.05;;;19.30;99.90;;;;;;5049625;28;20532;-69
2022/06/14 07:48:50;;;;;;;0.10;0.10;;;19.70;99.90;;;;;;5052745;28;20033;-69
2022/06/14 07:51:28;;;;;;;0.10;0.10;;;20.40;99.90;;;;;;5036293;28;20026;-77
2022/06/14 07:54:05;;;;;;;0.10;0.10;;;21.00;99.90;;;;;;5048064;28;20021;-77
2022/06/14 07:56:36;;;;;;;0.10;0.10;;;20.80;94.70;;;;;;5049859;28;20068;-77
2022/06/14 07:59:13;;;;;;;0.10;0.10;;;20.90;99.90;;;;;;5048882;28;20029;-84
2022/06/14 08:01:56;;;;;;;0.00;0.00;;;20.40;98.60;;;;;;5052524;28;20041;-78
2022/06/14 08:04:29;;;;;;;0.10;0.10;;;20.90;99.90;;;;;;5052174;28;20041;-77
2022/06/14 08:07:10;;;;;;;0.08;0.08;;;21.10;96.50;;;;;;5048484;28;20452;-76
2022/06/14 08:09:58;;;;;;;0.10;0.10;;;21.60;88.20;;;;;;5054269;28;20021;-77
2022/06/14 08:12:49;;;;;;;0.10;0.10;;;21.80;82.90;;;;;;5044741;28;20047;-78
2022/06/14 08:15:23;;;;;;;0.10;0.10;;;20.70;72.70;;;;;;5054004;28;20347;-77
2022/06/14 08:18:24;;;;;;;0.17;0.10;;;20.90;94.80;;;;;;5054673;28;20025;-76
2022/06/14 08:20:52;;;;;;;;;;;21.20;99.40;;;;;;5052766;28;20075;-77
2022/06/14 08:23:32;;;;;;;0.00;0.00;;;21.70;74.80;;;;;;5053685;28;19909;-76
2022/06/14 08:26:31;;;;;;;0.10;0.10;;;22.00;87.30;;;;;;5052038;28;20100;-76
2022/06/14 08:29:20;;;;;;;0.08;0.08;;;22.10;75.50;;;;;;5043510;28;20077;-76
2022/06/14 08:31:52;;;;;;;0.10;0.10;;;21.40;66.10;;;;;;5047578;28;20049;-76
2022/06/14 08:34:17;;;;;;;0.13;0.10;;;21.00;68.20;;;;;;5059567;28;20052;-72
2022/06/14 08:36:59;;;;;;;0.10;0.10;;;21.10;94.60;;;;;;5051175;28;20032;-72
2022/06/14 08:39:35;;;;;;;0.10;0.10;;;21.20;67.80;;;;;;5047916;28;20060;-72
2022/06/14 08:42:19;;;;;;;0.10;0.10;;;21.90;77.70;;;;;;5042134;28;20053;-72
2022/06/14 08:44:58;;;;;;;0.00;0.00;;;21.60;61.10;;;;;;5049412;28;20028;-74
2022/06/14 08:47:39;;;;;;;0.10;0.10;;;22.60;61.60;;;;;;5049622;28;20028;-75
2022/06/14 08:50:46;;;;;;;0.10;0.10;;;22.40;62.80;;;;;;5048357;28;20032;-76
2022/06/14 08:53:21;;;;;;;0.10;0.10;;;22.60;66.70;;;;;;5035182;28;20869;-75
2022/06/14 08:56:07;;;;;;;0.17;0.17;;;21.90;65.30;;;;;;5041481;28;20428;-75
2022/06/14 08:59:10;;;;;;;0.10;0.10;;;21.60;67.00;;;;;;5040679;28;20041;-75
2022/06/14 09:01:57;;;;;;;0.52;0.20;;;21.20;86.90;;;;;;5041424;28;20049;-73
2022/06/14 09:05:01;;;;;;;0.10;0.05;;;21.10;89.80;;;;;;5055072;28;20032;-73
2022/06/14 09:07:26;;;;;;;0.17;0.10;;;20.70;68.50;;;;;;5048921;28;20029;-72
2022/06/14 09:10:06;;;;;;;0.10;0.10;;;20.30;66.90;;;;;;5045542;28;20033;-72
2022/06/14 09:12:57;;;;;;;0.25;0.10;;;20.80;66.10;;;;;;5052318;28;20063;-72
2022/06/14 09:15:38;;;;;;;1.65;0.55;;;20.60;63.80;;;;;;5039590;28;20032;-73
2022/06/14 09:18:24;;;;;;;0.17;0.10;;;22.00;65.40;;;;;;5051119;28;20089;-74
2022/06/14 09:21:13;;;;;;;0.00;0.00;;;23.00;64.40;;;;;;5050191;28;20044;-72
2022/06/14 09:24:03;;;;;;;0.20;0.10;;;23.80;57.80;;;;;;5039222;28;20029;-73
2022/06/14 09:26:38;;;;;;;0.10;0.10;;;24.20;57.30;;;;;;5044307;28;20737;-73
2022/06/14 09:29:36;;;;;;;0.10;0.10;;;23.80;54.80;;;;;;5045480;28;20050;-72
2022/06/14 09:35:30;;;;;;;0.10;0.10;;;22.20;62.80;;;;;;5043554;28;20066;-72
2022/06/14 09:38:27;;;;;;;0.10;0.10;;;21.50;61.80;;;;;;5050334;28;20033;-72
2022/06/14 09:40:55;;;;;;;0.10;0.10;;;21.30;66.30;;;;;;5047923;28;20044;-71
2022/06/14 09:43:47;;;;;;;0.10;0.10;;;20.80;68.30;;;;;;5041591;28;20059;-72
2022/06/14 09:46:16;;;;;;;0.10;0.10;;;20.70;72.90;;;;;;5047858;28;20025;-71
2022/06/14 09:49:06;;;;;;;0.10;0.10;;;20.80;95.80;;;;;;5042758;28;20163;-72
2022/06/14 09:52:05;;;;;;;0.10;0.10;;;20.60;95.70;;;;;;5051558;28;20083;-72
2022/06/14 09:54:46;;;;;;;0.10;0.10;;;20.80;77.20;;;;;;5043054;28;20030;-72
2022/06/14 09:57:18;;;;;;;0.10;0.10;;;20.50;67.10;;;;;;5022817;28;20034;-72
2022/06/14 09:59:46;;;;;;;0.10;0.10;;;21.30;87.00;;;;;;5054712;28;20040;-72
2022/06/14 10:02:49;;;;;;;0.10;0.10;;;22.90;79.40;;;;;;5039820;28;20033;-72
2022/06/14 10:05:41;;;;;;;0.10;0.10;;;23.40;61.30;;;;;;5054008;28;20111;-73
2022/06/14 10:08:21;;;;;;;0.03;0.03;;;23.30;64.30;;;;;;5055867;28;20043;-73
2022/06/14 10:11:15;;;;;;;0.20;0.10;;;22.70;59.50;;;;;;5039042;28;20021;-73
2022/06/14 10:14:05;;;;;;;0.00;0.00;;;22.50;58.60;;;;;;5046032;28;20047;-73
2022/06/14 10:16:40;;;;;;;0.10;0.10;;;22.40;62.00;;;;;;5046016;28;20038;-73
2022/06/14 10:19:30;;;;;;;0.08;0.08;;;23.00;61.60;;;;;;5042878;28;20033;-72
2022/06/14 10:22:14;;;;;;;0.00;0.00;;;22.70;58.90;;;;;;5055451;28;20044;-72
2022/06/14 10:24:44;;;;;;;0.17;0.10;;;23.10;60.90;;;;;;5050743;28;20100;-72
2022/06/14 10:30:51;;;;;;;0.08;0.00;;;22.70;58.40;;;;;;5039735;28;20063;-81
2022/06/14 10:33:44;;;;;;;0.00;0.00;;;22.50;60.80;;;;;;5041342;28;20049;-81
2022/06/14 10:36:28;;;;;;;0.10;0.10;;;22.50;61.20;;;;;;5041482;28;20084;-81
2022/06/14 10:39:52;;;;;;;0.10;0.10;;;22.60;66.10;;;;;;5044816;28;20021;-79
2022/06/14 10:42:34;;;;;;;0.00;0.00;;;22.30;67.70;;;;;;5018761;28;20095;-79
2022/06/14 10:45:00;;;;;;;0.10;0.10;;;22.50;63.60;;;;;;5016457;28;20521;-79
2022/06/14 10:48:07;;;;;;;0.10;0.10;;;22.70;58.90;;;;;;5030876;28;20041;-79
2022/06/14 10:50:41;;;;;;;0.00;0.00;;;22.70;57.00;;;;;;5057334;28;20029;-79
2022/06/14 10:53:42;;;;;;;0.10;0.10;;;24.00;58.20;;;;;;5058475;28;20021;-79
2022/06/14 10:56:33;;;;;;;0.30;0.30;;;24.20;53.70;;;;;;5038823;28;20078;-80
2022/06/14 10:59:21;;;;;;;0.00;0.00;;;25.00;53.50;;;;;;5038017;28;20446;-80
2022/06/14 11:01:46;;;;;;;0.00;0.00;;;24.60;53.90;;;;;;5039016;28;20037;-80
2022/06/14 11:04:19;;;;;;;0.00;0.00;;;25.70;52.10;;;;;;5058619;28;20025;-80
2022/06/14 11:06:57;;;;;;;0.00;0.00;;;26.30;51.50;;;;;;5049428;28;20037;-79
2022/06/14 11:09:55;;;;;;;0.00;0.00;;;26.80;51.10;;;;;;5046868;28;20036;-80
2022/06/14 11:12:41;;;;;;;0.00;0.00;;;27.10;51.10;;;;;;5054995;28;20041;-79
2022/06/14 11:15:38;;;;;;;0.00;0.00;;;27.50;47.20;;;;;;5057615;28;20457;-79
2022/06/14 11:18:33;;;;;;;0.00;0.00;;;25.80;48.10;;;;;;5055325;28;20025;-79
2022/06/14 11:21:36;;;;;;;0.00;0.00;;;25.50;49.40;;;;;;5037713;28;20041;-79
2022/06/14 11:24:09;;;;;;;0.00;0.00;;;25.40;50.10;;;;;;5037378;28;20033;-79
2022/06/14 11:26:45;;;;;;;0.10;0.10;;;24.70;49.70;;;;;;5028046;28;20030;-79
2022/06/14 11:29:23;;;;;;;0.30;0.30;;;23.60;49.30;;;;;;5044841;28;20088;-79
2022/06/14 11:32:03;;;;;;;0.00;0.00;;;23.70;51.40;;;;;;5044725;28;20056;-80
2022/06/14 11:35:00;;;;;;;0.05;0.05;;;23.10;51.30;;;;;;5060385;28;20062;-79
2022/06/14 11:37:56;;;;;;;0.00;0.00;;;23.00;52.40;;;;;;5042717;28;20032;-79
2022/06/14 11:40:26;;;;;;;0.00;0.00;;;24.00;55.80;;;;;;5038368;28;20109;-79
2022/06/14 11:43:11;;;;;;;0.55;0.17;;;24.60;52.30;;;;;;5044463;28;20034;-79
2022/06/14 11:45:51;;;;;;;0.10;0.10;;;24.60;51.90;;;;;;5040382;28;20025;-79
2022/06/14 11:48:36;;;;;;;0.00;0.00;;;24.20;50.00;;;;;;5039611;28;20025;-78
2022/06/14 11:51:15;;;;;;;0.00;0.00;;;24.20;51.70;;;;;;5038602;28;20030;-79
2022/06/14 11:53:50;;;;;;;0.80;0.30;;;24.50;54.10;;;;;;5030753;28;20040;-79
2022/06/14 11:56:36;;;;;;;0.00;0.00;;;24.80;52.00;;;;;;5040422;28;20053;-79
2022/06/14 11:59:21;;;;;;;0.17;0.10;;;25.20;52.30;;;;;;5039455;28;20113;-79
2022/06/14 12:02:25;;;;;;;0.20;0.10;;;23.90;49.90;;;;;;5038904;28;20037;-79
2022/06/14 12:05:42;;;;;;;0.30;0.10;;;24.40;53.20;;;;;;5044541;28;20030;-79
2022/06/14 12:08:35;;;;;;;0.03;0.03;;;25.40;50.90;;;;;;5021074;28;20479;-80
2022/06/14 12:11:26;;;;;;;0.00;0.00;;;25.80;48.80;;;;;;5036212;28;20036;-79
2022/06/14 12:14:10;;;;;;;0.10;0.10;;;26.00;49.90;;;;;;5044968;28;20052;-80
2022/06/14 12:16:42;;;;;;;0.00;0.00;;;26.00;51.10;;;;;;5039274;28;20017;-81
2022/06/14 12:19:11;;;;;;;0.00;0.00;;;25.50;48.10;;;;;;5036905;28;20048;-81
2022/06/14 12:22:26;;;;;;;0.00;0.00;;;25.40;51.00;;;;;;5051758;28;20126;-82
2022/06/14 12:27:43;;;;;;;0.17;0.10;;;25.00;51.80;;;;;;5049646;28;20044;-82
2022/06/14 12:30:11;;;;;;;0.13;0.08;;;25.80;51.00;;;;;;5033256;28;20045;-82
2022/06/14 12:33:10;;;;;;;0.10;0.10;;;26.20;49.80;;;;;;5036351;28;20045;-77
2022/06/14 12:35:41;;;;;;;0.10;0.10;;;26.70;48.90;;;;;;5040481;28;20033;-77
2022/06/14 12:38:15;;;;;;;0.00;0.00;;;26.10;45.30;;;;;;5043822;28;20052;-78
2022/06/14 12:40:59;;;;;;;0.00;0.00;;;26.40;47.90;;;;;;5047752;28;20186;-77
2022/06/14 12:43:46;;;;;;;0.00;0.00;;;25.20;48.60;;;;;;5050783;28;20028;-78
2022/06/14 12:46:16;;;;;;;0.47;0.40;;;25.20;49.10;;;;;;5039058;28;20055;-78
2022/06/14 12:49:01;;;;;;;0.00;0.00;;;24.80;49.40;;;;;;5044572;28;20077;-77
2022/06/14 12:51:38;;;;;;;0.03;0.03;;;25.00;50.30;;;;;;5046112;28;20048;-77
2022/06/14 12:54:14;;;;;;;0.00;0.00;;;24.60;50.70;;;;;;5047391;28;20041;-76
2022/06/14 12:57:09;;;;;;;0.05;0.05;;;24.00;51.00;;;;;;5041596;28;20038;-75
2022/06/14 13:00:00;;;;;;;0.00;0.00;;;24.00;52.60;;;;;;5048297;28;20029;-78
2022/06/14 13:02:57;;;;;;;0.00;0.00;;;24.00;53.70;;;;;;5059361;28;20033;-77
2022/06/14 13:05:36;;;;;;;0.00;0.00;;;23.80;51.60;;;;;;5017183;28;20034;-76
2022/06/14 13:08:20;;;;;;;0.20;0.15;;;23.90;52.50;;;;;;5059722;28;20025;-76
2022/06/14 13:11:06;;;;;;;0.17;0.10;;;23.90;53.20;;;;;;5059733;28;20036;-75
2022/06/14 13:13:53;;;;;;;0.00;0.00;;;24.10;51.60;;;;;;5060697;28;20053;-75
2022/06/14 13:16:29;;;;;;;0.00;0.00;;;25.10;52.10;;;;;;5049045;28;20033;-76
2022/06/14 13:19:09;;;;;;;0.00;0.00;;;26.00;51.60;;;;;;5041624;28;20033;-76
2022/06/14 13:22:02;;;;;;;0.05;0.05;;;25.70;48.80;;;;;;5051681;28;20112;-76
2022/06/14 13:24:40;;;;;;;0.00;0.00;;;24.80;46.80;;;;;;5054524;28;20029;-75
2022/06/14 13:27:48;;;;;;;0.00;0.00;;;24.80;48.20;;;;;;5043180;28;20054;-76
2022/06/14 13:30:36;;;;;;;0.10;0.10;;;24.60;49.60;;;;;;5039820;28;20044;-77
2022/06/14 13:33:12;;;;;;;0.00;0.00;;;24.70;51.30;;;;;;5036396;28;20053;-76
2022/06/14 13:35:57;;;;;;;0.00;0.00;;;24.60;51.20;;;;;;5049436;28;20080;-75
2022/06/14 13:38:57;;;;;;;0.10;0.00;;;24.30;50.90;;;;;;5046442;28;20029;-75
2022/06/14 13:41:28;;;;;;;0.00;0.00;;;24.20;50.30;;;;;;5040474;28;20048;-75
2022/06/14 13:44:04;;;;;;;0.00;0.00;;;24.60;51.00;;;;;;5043325;28;20045;-75
2022/06/14 13:46:38;;;;;;;0.10;0.10;;;24.50;49.50;;;;;;5046200;28;20025;-76
2022/06/14 13:49:25;;;;;;;0.00;0.00;;;24.70;50.80;;;;;;5061648;28;20037;-76
2022/06/14 13:52:19;;;;;;;0.00;0.00;;;24.60;52.90;;;;;;5058991;28;20131;-76
2022/06/14 13:55:03;;;;;;;0.03;0.03;;;24.40;51.30;;;;;;5036935;28;20075;-76
2022/06/14 13:57:49;;;;;;;0.00;0.00;;;24.00;49.70;;;;;;5041332;28;20025;-76
2022/06/14 14:00:29;;;;;;;0.05;0.05;;;24.40;51.00;;;;;;5040231;28;20034;-76
2022/06/14 14:02:55;;;;;;;0.10;0.10;;;24.80;51.30;;;;;;5039719;28;20048;-76
2022/06/14 14:05:36;;;;;;;0.10;0.10;;;24.90;50.50;;;;;;5039454;28;20494;-76
2022/06/14 14:08:01;;;;;;;;;;;24.60;50.20;;;;;;5040169;28;20033;-77
2022/06/14 14:10:36;;;;;;;0.00;0.00;;;24.70;48.80;;;;;;5055772;28;19939;-76
2022/06/14 14:13:13;;;;;;;0.10;0.10;;;24.70;50.80;;;;;;5041808;28;20509;-77
2022/06/14 14:16:01;;;;;;;0.10;0.10;;;24.50;49.60;;;;;;5055253;28;20039;-77
2022/06/14 14:18:31;;;;;;;0.10;0.10;;;24.50;50.30;;;;;;5048969;28;20115;-80